createdAt,value
2024-04-18T00:01:56.927Z,66.10
2024-04-18T00:04:24.724Z,64.42
2024-04-18T00:07:02.486Z,62.89
2024-04-18T00:09:30.094Z,61.65
2024-04-18T00:11:57.696Z,58.84
2024-04-18T00:14:45.528Z,56.49
2024-04-18T00:17:19.022Z,60.63
2024-04-18T00:19:46.852Z,65.14
2024-04-18T00:22:31.785Z,67.22
2024-04-18T00:25:07.229Z,64.89
2024-04-18T00:27:56.273Z,62.01
2024-04-18T00:30:43.406Z,60.13
2024-04-18T00:33:12.536Z,57.16
2024-04-18T00:35:40.994Z,56.80
2024-04-18T00:38:14.898Z,58.78
2024-04-18T00:40:45.923Z,63.49
2024-04-18T00:43:22.835Z,67.14
2024-04-18T00:45:55.833Z,64.23
2024-04-18T00:48:25.748Z,62.77
2024-04-18T00:50:58.375Z,61.43
2024-04-18T00:53:27.372Z,59.83
2024-04-18T00:55:55.469Z,57.57
2024-04-18T00:58:41.941Z,59.50
2024-04-18T01:01:23.128Z,64.34
2024-04-18T01:03:57.994Z,65.85
2024-04-18T01:06:44.748Z,63.42
2024-04-18T01:09:18.411Z,61.76
2024-04-18T01:12:05.022Z,60.38
2024-04-18T01:14:32.582Z,57.37
2024-04-18T01:17:04.458Z,56.92
2024-04-18T01:19:32.616Z,58.90
2024-04-18T01:22:04.031Z,62.61
2024-04-18T01:24:33.575Z,66.44
2024-04-18T01:27:01.375Z,63.65
2024-04-18T01:29:45.172Z,62.01
2024-04-18T01:32:36.680Z,60.49
2024-04-18T01:35:07.601Z,57.99
2024-04-18T01:37:48.217Z,57.38
2024-04-18T01:40:16.406Z,59.50
2024-04-18T01:42:44.085Z,64.16
2024-04-18T01:45:27.619Z,66.69
2024-04-18T01:48:13.783Z,63.84
2024-04-18T01:51:05.014Z,60.37
2024-04-18T01:53:32.672Z,57.37
2024-04-18T01:56:00.179Z,57.13
2024-04-18T01:58:47.214Z,57.70
2024-04-18T02:01:15.087Z,62.66
2024-04-18T02:03:43.040Z,65.83
2024-04-18T02:06:13.918Z,63.73
2024-04-18T02:08:47.865Z,62.62
2024-04-18T02:11:18.528Z,61.32
2024-04-18T02:14:06.070Z,57.98
2024-04-18T02:16:33.639Z,57.12
2024-04-18T02:19:30.691Z,58.57
2024-04-18T02:22:17.173Z,64.71
2024-04-18T02:25:04.115Z,66.51
2024-04-18T02:27:32.164Z,63.11
2024-04-18T02:30:20.945Z,62.65
2024-04-18T02:32:50.692Z,61.29
2024-04-18T02:35:18.436Z,58.13
2024-04-18T02:38:01.304Z,56.00
2024-04-18T02:40:28.912Z,58.01
2024-04-18T02:43:02.903Z,60.43
2024-04-18T02:45:33.345Z,65.33
2024-04-18T02:48:19.548Z,67.68
2024-04-18T02:50:47.220Z,63.83
2024-04-18T02:53:14.769Z,61.71
2024-04-18T02:56:01.115Z,61.42
2024-04-18T02:58:31.955Z,60.07
2024-04-18T03:01:18.093Z,57.28
2024-04-18T03:03:45.872Z,56.70
2024-04-18T03:06:13.589Z,58.18
2024-04-18T03:08:41.117Z,62.26
2024-04-18T03:11:17.951Z,66.42
2024-04-18T03:14:04.623Z,64.35
2024-04-18T03:16:32.966Z,61.88
2024-04-18T03:19:33.192Z,60.21
2024-04-18T03:22:00.839Z,57.04
2024-04-18T03:24:28.427Z,56.45
2024-04-18T03:26:56.006Z,57.48
2024-04-18T03:29:23.752Z,59.71
2024-04-18T03:32:00.581Z,64.61
2024-04-18T03:34:46.287Z,67.48
2024-04-18T03:37:13.910Z,63.60
2024-04-18T03:39:41.528Z,61.64
2024-04-18T03:42:09.227Z,59.91
2024-04-18T03:45:03.114Z,56.30
2024-04-18T03:47:30.770Z,57.31
2024-04-18T03:50:10.782Z,59.81
2024-04-18T03:52:39.562Z,64.59
2024-04-18T03:55:26.202Z,67.11
2024-04-18T03:57:53.965Z,63.95
2024-04-18T04:00:42.852Z,61.50
2024-04-18T04:03:10.878Z,60.42
2024-04-18T04:05:38.500Z,58.22
2024-04-18T04:08:06.782Z,58.82
2024-04-18T04:10:40.933Z,59.61
2024-04-18T04:13:08.852Z,59.53
2024-04-18T04:15:52.374Z,68.16
2024-04-18T04:18:39.985Z,69.16
2024-04-18T04:21:26.416Z,63.82
2024-04-18T04:23:55.176Z,63.49
2024-04-18T04:26:43.515Z,62.79
2024-04-18T04:29:12.094Z,60.92
2024-04-18T04:31:40.075Z,60.38
2024-04-18T04:34:08.596Z,60.10
2024-04-18T04:36:36.218Z,59.90
2024-04-18T04:39:04.019Z,58.56
2024-04-18T04:41:41.143Z,60.30
2024-04-18T04:44:08.863Z,65.53
2024-04-18T04:46:52.259Z,65.87
2024-04-18T04:49:20.511Z,62.94
2024-04-18T04:52:04.993Z,61.73
2024-04-18T04:54:45.798Z,60.27
2024-04-18T04:57:14.748Z,57.69
2024-04-18T04:59:44.342Z,57.75
2024-04-18T05:02:12.232Z,59.39
2024-04-18T05:04:49.761Z,65.64
2024-04-18T05:07:33.120Z,66.21
2024-04-18T05:10:20.778Z,64.18
2024-04-18T05:12:49.697Z,62.31
2024-04-18T05:15:36.757Z,60.54
2024-04-18T05:18:10.928Z,58.16
2024-04-18T05:20:39.254Z,57.89
2024-04-18T05:23:08.251Z,60.04
2024-04-18T05:25:36.444Z,64.96
2024-04-18T05:28:31.169Z,65.49
2024-04-18T05:31:02.636Z,63.28
2024-04-18T05:33:31.551Z,61.81
2024-04-18T05:35:59.680Z,60.75
2024-04-18T05:38:28.094Z,58.46
2024-04-18T05:40:57.076Z,58.05
2024-04-18T05:43:44.674Z,59.73
2024-04-18T05:46:12.248Z,64.98
2024-04-18T05:48:39.880Z,66.31
2024-04-18T05:51:07.527Z,64.25
2024-04-18T05:53:53.519Z,58.21
2024-04-18T05:56:29.806Z,57.43
2024-04-18T05:58:57.400Z,59.67
2024-04-18T06:01:25.095Z,63.42
2024-04-18T06:03:52.836Z,63.26
2024-04-18T06:06:20.500Z,61.03
2024-04-18T06:08:48.135Z,57.47
2024-04-18T06:11:16.884Z,57.63
2024-04-18T06:13:44.565Z,60.02
2024-04-18T06:16:12.208Z,64.93
2024-04-18T06:19:05.804Z,62.99
2024-04-18T06:21:34.177Z,58.47
2024-04-18T06:24:01.764Z,56.66
2024-04-18T06:26:29.478Z,59.88
2024-04-18T06:28:57.015Z,64.90
2024-04-18T06:31:39.524Z,65.49
2024-04-18T06:34:07.262Z,62.57
2024-04-18T06:36:34.916Z,59.51
2024-04-18T06:39:02.556Z,57.27
2024-04-18T06:41:30.115Z,58.89
2024-04-18T06:43:58.600Z,61.47
2024-04-18T06:46:28.117Z,65.37
2024-04-18T06:48:55.679Z,62.13
2024-04-18T06:51:23.437Z,57.74
2024-04-18T06:53:51.009Z,59.09
2024-04-18T06:56:20.337Z,62.90
2024-04-18T06:58:50.470Z,65.25
2024-04-18T07:01:38.122Z,62.55
2024-04-18T07:04:07.029Z,60.77
2024-04-18T07:06:34.894Z,57.51
2024-04-18T07:09:05.413Z,57.75
2024-04-18T07:11:45.694Z,59.41
2024-04-18T07:14:13.556Z,62.94
2024-04-18T07:16:41.176Z,64.12
2024-04-18T07:19:27.686Z,61.02
2024-04-18T07:21:55.546Z,58.71
2024-04-18T07:24:27.257Z,58.53
2024-04-18T07:26:56.914Z,62.09
2024-04-18T07:29:25.011Z,64.41
2024-04-18T07:31:52.613Z,63.80
2024-04-18T07:34:20.433Z,60.05
2024-04-18T07:36:49.168Z,58.22
2024-04-18T07:39:17.470Z,59.41
2024-04-18T07:41:45.064Z,63.31
2024-04-18T07:44:13.285Z,60.53
2024-04-18T07:46:41.350Z,58.39
2024-04-18T07:49:09.794Z,59.84
2024-04-18T07:51:39.224Z,64.30
2024-04-18T07:54:07.306Z,63.48
2024-04-18T07:56:35.260Z,62.06
2024-04-18T07:59:04.820Z,56.85
2024-04-18T08:01:34.376Z,55.96
2024-04-18T08:04:25.927Z,59.83
2024-04-18T08:06:55.154Z,62.32
2024-04-18T08:09:27.973Z,61.97
2024-04-18T08:14:32.620Z,56.16
2024-04-18T08:17:03.289Z,58.54
2024-04-18T08:19:30.982Z,60.49
2024-04-18T08:21:59.201Z,63.71
2024-04-18T08:24:29.008Z,62.40
2024-04-18T08:27:09.583Z,59.80
2024-04-18T08:29:37.704Z,54.43
2024-04-18T08:32:05.658Z,57.82
2024-04-18T08:34:36.988Z,58.50
2024-04-18T08:37:06.171Z,59.37
2024-04-18T08:39:33.767Z,61.63
2024-04-18T08:42:02.601Z,61.72
2024-04-18T08:44:30.303Z,63.88
2024-04-18T08:46:59.247Z,61.79
2024-04-18T08:49:27.970Z,56.72
2024-04-18T08:51:55.676Z,55.12
2024-04-18T08:54:23.422Z,58.14
2024-04-18T08:56:53.764Z,57.91
2024-04-18T08:59:23.715Z,59.06
2024-04-18T09:01:52.871Z,59.88
2024-04-18T09:04:20.515Z,58.51
2024-04-18T09:06:48.380Z,57.78
2024-04-18T09:09:18.134Z,61.06
2024-04-18T09:11:48.172Z,60.86
2024-04-18T09:14:16.278Z,59.88
2024-04-18T09:16:44.986Z,60.34
2024-04-18T09:19:13.866Z,60.07
2024-04-18T09:21:42.255Z,59.10
2024-04-18T09:24:10.045Z,59.51
2024-04-18T09:26:37.780Z,59.67
2024-04-18T09:29:05.689Z,58.16
2024-04-18T09:31:38.483Z,57.28
2024-04-18T09:34:16.961Z,58.14
2024-04-18T09:36:46.428Z,58.79
2024-04-18T09:39:24.662Z,59.86
2024-04-18T09:42:01.601Z,60.44
2024-04-18T09:44:32.019Z,60.78
2024-04-18T09:47:01.669Z,60.31
2024-04-18T09:49:30.010Z,60.32
2024-04-18T09:51:58.620Z,60.73
2024-04-18T09:54:27.002Z,60.62
2024-04-18T09:56:56.109Z,61.32
2024-04-18T09:59:24.255Z,60.81
2024-04-18T10:01:53.033Z,59.65
2024-04-18T10:04:22.237Z,57.35
2024-04-18T10:06:51.460Z,57.95
2024-04-18T10:09:22.068Z,57.90
2024-04-18T10:11:50.255Z,58.09
2024-04-18T10:14:18.213Z,58.86
2024-04-18T10:16:50.167Z,58.71
2024-04-18T10:19:22.772Z,59.53
2024-04-18T10:22:11.017Z,60.17
2024-04-18T10:24:50.511Z,59.11
2024-04-18T10:27:21.746Z,57.82
2024-04-18T10:30:00.537Z,57.28
2024-04-18T10:32:29.962Z,56.34
2024-04-18T10:35:03.349Z,57.00
2024-04-18T10:37:30.985Z,56.36
2024-04-18T10:39:58.918Z,56.07
2024-04-18T10:42:26.889Z,56.89
2024-04-18T10:44:54.739Z,57.55
2024-04-18T10:47:23.206Z,57.69
2024-04-18T10:49:51.141Z,57.96
2024-04-18T10:52:19.376Z,58.68
2024-04-18T10:54:47.386Z,59.19
2024-04-18T10:57:15.520Z,59.98
2024-04-18T10:59:48.614Z,61.38
2024-04-18T11:02:16.670Z,62.72
2024-04-18T11:04:45.536Z,60.59
2024-04-18T11:07:13.205Z,55.81
2024-04-18T11:09:41.959Z,55.59
2024-04-18T11:12:10.604Z,54.40
2024-04-18T11:14:38.569Z,54.45
2024-04-18T11:17:07.974Z,53.84
2024-04-18T11:19:36.337Z,54.01
2024-04-18T11:22:04.473Z,52.98
2024-04-18T11:24:32.135Z,52.91
2024-04-18T11:29:32.671Z,51.86
2024-04-18T11:32:13.504Z,52.59
2024-04-18T11:34:50.196Z,53.09
2024-04-18T11:37:19.986Z,50.97
2024-04-18T11:39:47.779Z,50.89
2024-04-18T11:42:15.463Z,50.61
2024-04-18T11:44:43.183Z,51.09
2024-04-18T11:47:10.891Z,51.69
2024-04-18T11:49:39.563Z,49.24
2024-04-18T11:52:08.312Z,49.98
2024-04-18T11:54:36.188Z,51.11
2024-04-18T11:57:04.291Z,51.24
2024-04-18T11:59:36.040Z,52.07
2024-04-18T12:02:04.086Z,52.87
2024-04-18T12:04:51.385Z,53.86
2024-04-18T12:07:19.132Z,53.88
2024-04-18T12:09:49.658Z,54.80
2024-04-18T12:12:17.380Z,55.17
2024-04-18T12:14:48.763Z,55.50
2024-04-18T12:17:30.047Z,55.47
2024-04-18T12:20:24.846Z,55.45
2024-04-18T12:22:52.424Z,56.03
2024-04-18T12:25:20.126Z,55.83
2024-04-18T12:27:48.092Z,56.11
2024-04-18T12:30:31.801Z,56.44
2024-04-18T12:33:18.773Z,56.22
2024-04-18T12:35:48.165Z,56.57
2024-04-18T12:38:15.759Z,54.92
2024-04-18T12:40:46.527Z,52.46
2024-04-18T12:43:16.454Z,51.93
2024-04-18T12:46:10.686Z,52.89
2024-04-18T12:48:52.863Z,54.23
2024-04-18T12:51:20.819Z,53.74
2024-04-18T12:53:48.723Z,54.13
2024-04-18T12:56:16.491Z,52.84
2024-04-18T12:58:44.233Z,53.06
2024-04-18T13:01:13.059Z,52.93
2024-04-18T13:03:42.799Z,52.98
2024-04-18T13:06:29.924Z,53.15
2024-04-18T13:09:00.425Z,53.16
2024-04-18T13:11:43.702Z,53.40
2024-04-18T13:14:11.442Z,52.40
2024-04-18T13:16:39.121Z,50.43
2024-04-18T13:19:13.082Z,50.68
2024-04-18T13:21:42.951Z,50.43
2024-04-18T13:24:12.224Z,50.07
2024-04-18T13:26:52.995Z,50.73
2024-04-18T13:29:21.418Z,51.92
2024-04-18T13:31:49.226Z,52.16
2024-04-18T13:34:20.945Z,51.85
2024-04-18T13:36:48.973Z,50.52
2024-04-18T13:39:19.439Z,50.75
2024-04-18T13:42:04.899Z,51.06
2024-04-18T13:44:53.665Z,51.77
2024-04-18T13:47:25.051Z,52.14
2024-04-18T13:49:53.546Z,52.41
2024-04-18T13:52:21.112Z,53.10
2024-04-18T13:55:07.486Z,53.61
2024-04-18T13:57:35.360Z,53.65
2024-04-18T14:00:30.627Z,54.32
2024-04-18T14:03:20.676Z,55.20
2024-04-18T14:06:06.570Z,55.05
2024-04-18T14:08:41.464Z,55.61
2024-04-18T14:11:28.856Z,57.82
2024-04-18T14:14:11.571Z,60.81
2024-04-18T14:17:17.808Z,64.59
2024-04-18T14:20:04.349Z,62.34
2024-04-18T14:22:32.055Z,60.70
2024-04-18T14:24:59.789Z,60.60
2024-04-18T14:27:33.453Z,64.82
2024-04-18T14:30:01.076Z,65.43
2024-04-18T14:32:33.908Z,60.53
2024-04-18T14:35:05.382Z,59.62
2024-04-18T14:37:33.180Z,62.82
2024-04-18T14:40:01.323Z,66.74
2024-04-18T14:42:29.010Z,65.17
2024-04-18T14:44:56.660Z,63.18
2024-04-18T14:47:24.527Z,61.78
2024-04-18T14:50:00.156Z,61.86
2024-04-18T14:52:37.720Z,58.03
2024-04-18T14:55:30.104Z,56.49
2024-04-18T14:58:20.403Z,58.58
2024-04-18T15:00:52.990Z,61.21
2024-04-18T15:03:21.640Z,65.06
2024-04-18T15:05:55.951Z,63.65
2024-04-18T15:08:41.620Z,60.23
2024-04-18T15:11:25.467Z,56.11
2024-04-18T15:14:04.940Z,55.72
2024-04-18T15:16:33.108Z,57.03
2024-04-18T15:19:00.868Z,59.37
2024-04-18T15:21:29.995Z,59.51
2024-04-18T15:24:13.290Z,60.44
2024-04-18T15:27:00.742Z,60.80
2024-04-18T15:29:28.849Z,59.62
2024-04-18T15:32:15.387Z,59.56
2024-04-18T15:34:49.535Z,59.74
2024-04-18T15:37:36.054Z,60.32
2024-04-18T15:40:04.498Z,59.38
2024-04-18T15:42:32.144Z,59.41
2024-04-18T15:45:00.963Z,60.65
2024-04-18T15:47:34.204Z,61.50
2024-04-18T15:50:24.408Z,61.62
2024-04-18T15:52:53.540Z,62.36
2024-04-18T15:55:33.536Z,59.46
2024-04-18T15:58:19.748Z,56.22
2024-04-18T16:00:47.478Z,56.88
2024-04-18T16:03:34.286Z,58.30
2024-04-18T16:06:24.640Z,59.73
2024-04-18T16:09:11.470Z,62.09
2024-04-18T16:11:41.975Z,61.42
2024-04-18T16:14:29.166Z,57.84
2024-04-18T16:16:56.813Z,58.67
2024-04-18T16:19:39.957Z,60.44
2024-04-18T16:22:07.546Z,61.80
2024-04-18T16:24:50.311Z,62.62
2024-04-18T16:27:17.939Z,60.76
2024-04-18T16:30:00.945Z,57.93
2024-04-18T16:32:49.185Z,59.10
2024-04-18T16:35:17.544Z,60.53
2024-04-18T16:37:46.057Z,62.75
2024-04-18T16:40:17.047Z,60.91
2024-04-18T16:43:03.300Z,60.20
2024-04-18T16:45:52.046Z,56.63
2024-04-18T16:48:19.780Z,58.64
2024-04-18T16:50:47.469Z,59.61
2024-04-18T16:53:15.097Z,61.65
2024-04-18T16:55:46.391Z,63.62
2024-04-18T16:58:17.702Z,63.99
2024-04-18T17:00:55.759Z,56.32
2024-04-18T17:03:23.850Z,53.37
2024-04-18T17:06:04.232Z,54.46
2024-04-18T17:08:32.989Z,54.88
2024-04-18T17:11:01.302Z,53.98
2024-04-18T17:13:49.870Z,53.25
2024-04-18T17:16:17.486Z,54.20
2024-04-18T17:18:48.271Z,53.89
2024-04-18T17:21:16.264Z,54.57
2024-04-18T17:23:43.912Z,55.54
2024-04-18T17:26:11.473Z,56.90
2024-04-18T17:28:39.298Z,58.40
2024-04-18T17:31:07.008Z,58.09
2024-04-18T17:33:34.666Z,58.70
2024-04-18T17:36:02.689Z,60.06
2024-04-18T17:38:46.735Z,60.66
2024-04-18T17:41:31.166Z,64.06
2024-04-18T17:44:17.481Z,62.87
2024-04-18T17:46:58.503Z,58.90
2024-04-18T17:49:27.049Z,57.12
2024-04-18T17:51:55.180Z,58.46
2024-04-18T17:54:23.062Z,61.01
2024-04-18T17:56:51.341Z,62.88
2024-04-18T17:59:20.231Z,62.34
2024-04-18T18:01:47.967Z,62.61
2024-04-18T18:04:15.857Z,57.30
2024-04-18T18:06:43.571Z,56.19
2024-04-18T18:09:11.326Z,57.07
2024-04-18T18:11:38.964Z,59.40
2024-04-18T18:14:06.636Z,60.84
2024-04-18T18:16:53.125Z,64.62
2024-04-18T18:19:21.316Z,64.46
2024-04-18T18:21:58.142Z,60.02
2024-04-18T18:24:25.987Z,57.49
2024-04-18T18:26:53.583Z,58.86
2024-04-18T18:29:23.112Z,61.59
2024-04-18T18:32:13.891Z,65.25
2024-04-18T18:34:51.268Z,63.97
2024-04-18T18:37:19.445Z,58.42
2024-04-18T18:40:07.661Z,61.03
2024-04-18T18:42:35.498Z,64.05
2024-04-18T18:45:07.452Z,62.25
2024-04-18T18:47:35.347Z,60.43
2024-04-18T18:50:19.591Z,59.16
2024-04-18T18:52:47.519Z,62.36
2024-04-18T18:55:36.293Z,64.00
2024-04-18T18:58:04.590Z,62.41
2024-04-18T19:00:32.398Z,61.91
2024-04-18T19:03:20.521Z,60.44
2024-04-18T19:05:50.914Z,59.31
2024-04-18T19:08:18.569Z,62.91
2024-04-18T19:10:55.353Z,66.82
2024-04-18T19:13:23.000Z,65.98
2024-04-18T19:15:58.530Z,64.09
2024-04-18T19:18:26.458Z,64.05
2024-04-18T19:20:54.183Z,63.69
2024-04-18T19:23:39.440Z,62.81
2024-04-18T19:26:10.091Z,62.85
2024-04-18T19:28:38.727Z,62.29
2024-04-18T19:31:08.210Z,61.48
2024-04-18T19:33:36.323Z,61.72
2024-04-18T19:36:04.513Z,60.22
2024-04-18T19:38:33.339Z,59.77
2024-04-18T19:41:19.932Z,59.52
2024-04-18T19:43:47.590Z,62.09
2024-04-18T19:46:15.200Z,64.51
2024-04-18T19:49:04.060Z,62.74
2024-04-18T19:51:51.562Z,61.23
2024-04-18T19:54:19.252Z,58.89
2024-04-18T19:56:46.828Z,57.96
2024-04-18T19:59:14.489Z,60.75
2024-04-18T20:01:42.247Z,63.92
2024-04-18T20:04:10.895Z,65.38
2024-04-18T20:06:39.742Z,63.10
2024-04-18T20:09:07.478Z,60.82
2024-04-18T20:11:35.381Z,59.27
2024-04-18T20:14:03.128Z,57.20
2024-04-18T20:16:30.699Z,58.93
2024-04-18T20:19:14.584Z,59.53
2024-04-18T20:21:43.708Z,64.17
2024-04-18T20:24:13.002Z,67.14
2024-04-18T20:27:06.947Z,62.02
2024-04-18T20:29:56.735Z,62.21
2024-04-18T20:32:25.657Z,59.99
2024-04-18T20:34:54.440Z,57.61
2024-04-18T20:37:23.503Z,59.48
2024-04-18T20:39:55.367Z,62.79
2024-04-18T20:42:25.338Z,65.20
2024-04-18T20:45:05.854Z,62.46
2024-04-18T20:47:34.072Z,60.74
2024-04-18T20:50:08.610Z,58.95
2024-04-18T20:52:36.656Z,58.96
2024-04-18T20:55:04.843Z,59.97
2024-04-18T20:57:32.532Z,64.94
2024-04-18T21:00:00.326Z,66.26
2024-04-18T21:02:28.654Z,63.89
2024-04-18T21:04:56.590Z,61.41
2024-04-18T21:07:24.213Z,59.36
2024-04-18T21:09:55.198Z,59.27
2024-04-18T21:12:24.999Z,63.80
2024-04-18T21:14:54.142Z,64.80
2024-04-18T21:17:21.961Z,63.74
2024-04-18T21:19:49.859Z,61.35
2024-04-18T21:22:17.873Z,60.72
2024-04-18T21:24:45.651Z,58.97
2024-04-18T21:27:13.556Z,58.91
2024-04-18T21:29:41.146Z,63.14
2024-04-18T21:32:08.890Z,65.47
2024-04-18T21:34:36.785Z,63.47
2024-04-18T21:37:04.543Z,61.82
2024-04-18T21:39:39.067Z,58.98
2024-04-18T21:42:06.725Z,57.85
2024-04-18T21:44:34.360Z,62.65
2024-04-18T21:47:01.955Z,65.65
2024-04-18T21:49:29.576Z,64.21
2024-04-18T21:51:57.131Z,62.58
2024-04-18T21:54:24.710Z,61.64
2024-04-18T21:56:52.256Z,58.84
2024-04-18T21:59:19.987Z,59.11
2024-04-18T22:01:47.608Z,63.38
2024-04-18T22:04:15.454Z,64.68
2024-04-18T22:06:43.298Z,63.07
2024-04-18T22:09:11.231Z,61.67
2024-04-18T22:11:39.190Z,60.38
2024-04-18T22:14:09.986Z,58.57
2024-04-18T22:16:37.901Z,59.15
2024-04-18T22:19:05.544Z,62.76
2024-04-18T22:21:40.150Z,66.89
2024-04-18T22:24:08.159Z,66.43
2024-04-18T22:26:36.807Z,63.67
2024-04-18T22:29:04.791Z,61.54
2024-04-18T22:31:32.369Z,60.10
2024-04-18T22:34:00.091Z,58.51
2024-04-18T22:36:28.001Z,59.19
2024-04-18T22:38:57.334Z,64.63
2024-04-18T22:41:26.985Z,65.79
2024-04-18T22:43:55.188Z,62.45
2024-04-18T22:46:22.860Z,61.42
2024-04-18T22:48:50.614Z,60.39
2024-04-18T22:51:18.407Z,58.77
2024-04-18T22:53:46.067Z,60.88
2024-04-18T22:56:13.629Z,64.81
2024-04-18T22:58:41.267Z,64.61
2024-04-18T23:01:09.013Z,61.33
2024-04-18T23:03:37.759Z,60.23
2024-04-18T23:06:15.498Z,58.20
2024-04-18T23:08:43.980Z,59.74
2024-04-18T23:11:13.891Z,63.35
2024-04-18T23:13:41.662Z,64.55
2024-04-18T23:16:09.311Z,62.62
2024-04-18T23:18:37.170Z,61.91
2024-04-18T23:21:05.200Z,60.28
2024-04-18T23:23:35.738Z,58.06
2024-04-18T23:26:03.793Z,60.26
2024-04-18T23:28:31.564Z,64.36
2024-04-18T23:30:59.305Z,64.94
2024-04-18T23:33:27.104Z,62.78
2024-04-18T23:35:54.787Z,61.30
2024-04-18T23:38:22.483Z,58.87
2024-04-18T23:40:50.378Z,58.99
2024-04-18T23:43:18.779Z,61.00
2024-04-18T23:45:46.582Z,65.02
2024-04-18T23:48:14.405Z,66.92
2024-04-18T23:50:42.397Z,64.64
2024-04-18T23:53:10.164Z,63.45
2024-04-18T23:55:40.259Z,62.22
2024-04-18T23:58:07.918Z,60.99
